sensor_id;sensor_type;location;lat;lon;timestamp;pressure;altitude;pressure_sealevel;temperature;humidity
58295;BME280;45705;55.592;37.460;2024-02-16T00:02:17;100746.88;;;-9.87;100.00
58295;BME280;45705;55.592;37.460;2024-02-16T00:04:43;100748.69;;;-9.98;100.00
58295;BME280;45705;55.592;37.460;2024-02-16T00:07:09;100735.88;;;-10.12;100.00
58295;BME280;45705;55.592;37.460;2024-02-16T00:09:36;100746.81;;;-10.17;100.00
58295;BME280;45705;55.592;37.460;2024-02-16T00:12:01;100757.47;;;-10.18;100.00
58295;BME280;45705;55.592;37.460;2024-02-16T00:14:27;100742.38;;;-10.36;100.00
58295;BME280;45705;55.592;37.460;2024-02-16T00:16:53;100742.50;;;-10.27;100.00
58295;BME280;45705;55.592;37.460;2024-02-16T00:19:18;100745.34;;;-10.10;100.00
58295;BME280;45705;55.592;37.460;2024-02-16T00:21:44;100720.75;;;-10.39;100.00
58295;BME280;45705;55.592;37.460;2024-02-16T00:24:10;100744.31;;;-10.18;100.00
58295;BME280;45705;55.592;37.460;2024-02-16T00:26:36;100735.47;;;-10.17;100.00
58295;BME280;45705;55.592;37.460;2024-02-16T00:29:02;100734.25;;;-10.13;100.00
58295;BME280;45705;55.592;37.460;2024-02-16T00:34:18;100728.66;;;-10.30;100.00
58295;BME280;45705;55.592;37.460;2024-02-16T00:36:44;100731.72;;;-10.24;100.00
58295;BME280;45705;55.592;37.460;2024-02-16T00:39:10;100719.03;;;-10.00;100.00
58295;BME280;45705;55.592;37.460;2024-02-16T00:41:35;100722.59;;;-10.20;100.00
58295;BME280;45705;55.592;37.460;2024-02-16T00:44:01;100718.00;;;-10.38;100.00
58295;BME280;45705;55.592;37.460;2024-02-16T00:46:27;100715.13;;;-10.15;100.00
58295;BME280;45705;55.592;37.460;2024-02-16T00:48:52;100724.56;;;-10.03;100.00
58295;BME280;45705;55.592;37.460;2024-02-16T00:51:19;100720.94;;;-10.21;100.00
58295;BME280;45705;55.592;37.460;2024-02-16T00:53:46;100718.03;;;-10.18;100.00
58295;BME280;45705;55.592;37.460;2024-02-16T00:56:12;100708.50;;;-10.10;100.00
58295;BME280;45705;55.592;37.460;2024-02-16T00:58:40;100700.31;;;-10.16;100.00
58295;BME280;45705;55.592;37.460;2024-02-16T01:01:08;100719.84;;;-10.09;100.00
58295;BME280;45705;55.592;37.460;2024-02-16T01:03:37;100719.59;;;-10.06;100.00
58295;BME280;45705;55.592;37.460;2024-02-16T01:06:04;100716.53;;;-10.11;100.00
58295;BME280;45705;55.592;37.460;2024-02-16T01:08:31;100719.00;;;-10.19;100.00
58295;BME280;45705;55.592;37.460;2024-02-16T01:10:57;100715.16;;;-9.96;100.00
58295;BME280;45705;55.592;37.460;2024-02-16T01:13:22;100712.69;;;-9.87;100.00
58295;BME280;45705;55.592;37.460;2024-02-16T01:15:48;100716.56;;;-9.92;100.00
58295;BME280;45705;55.592;37.460;2024-02-16T01:18:14;100714.88;;;-10.02;100.00
58295;BME280;45705;55.592;37.460;2024-02-16T01:20:40;100722.63;;;-10.01;100.00
58295;BME280;45705;55.592;37.460;2024-02-16T01:23:06;100719.75;;;-9.88;100.00
58295;BME280;45705;55.592;37.460;2024-02-16T01:25:31;100721.25;;;-9.85;100.00
58295;BME280;45705;55.592;37.460;2024-02-16T01:27:58;100726.75;;;-10.08;100.00
58295;BME280;45705;55.592;37.460;2024-02-16T01:30:24;100723.88;;;-9.95;100.00
58295;BME280;45705;55.592;37.460;2024-02-16T01:32:50;100711.28;;;-10.01;100.00
58295;BME280;45705;55.592;37.460;2024-02-16T01:35:16;100725.69;;;-10.05;100.00
58295;BME280;45705;55.592;37.460;2024-02-16T01:37:42;100718.47;;;-10.03;100.00
58295;BME280;45705;55.592;37.460;2024-02-16T01:40:09;100722.06;;;-9.95;100.00
58295;BME280;45705;55.592;37.460;2024-02-16T01:42:43;100722.22;;;-10.06;100.00
58295;BME280;45705;55.592;37.460;2024-02-16T01:45:09;100714.59;;;-9.99;100.00
58295;BME280;45705;55.592;37.460;2024-02-16T01:47:36;100714.16;;;-10.04;100.00
58295;BME280;45705;55.592;37.460;2024-02-16T01:50:03;100717.00;;;-9.86;100.00
58295;BME280;45705;55.592;37.460;2024-02-16T01:52:30;100717.38;;;-10.01;100.00
58295;BME280;45705;55.592;37.460;2024-02-16T01:54:57;100718.06;;;-9.79;100.00
58295;BME280;45705;55.592;37.460;2024-02-16T01:57:24;100711.84;;;-9.88;100.00
58295;BME280;45705;55.592;37.460;2024-02-16T01:59:49;100709.63;;;-9.93;100.00
58295;BME280;45705;55.592;37.460;2024-02-16T02:02:15;100707.41;;;-9.87;100.00
58295;BME280;45705;55.592;37.460;2024-02-16T02:04:41;100705.63;;;-9.77;100.00
58295;BME280;45705;55.592;37.460;2024-02-16T02:07:14;100703.25;;;-10.00;100.00
58295;BME280;45705;55.592;37.460;2024-02-16T02:09:40;100698.53;;;-10.06;100.00
58295;BME280;45705;55.592;37.460;2024-02-16T02:12:07;100703.25;;;-10.00;100.00
58295;BME280;45705;55.592;37.460;2024-02-16T02:14:33;100710.16;;;-9.99;100.00
58295;BME280;45705;55.592;37.460;2024-02-16T02:16:59;100675.25;;;-10.11;100.00
58295;BME280;45705;55.592;37.460;2024-02-16T02:19:24;100700.22;;;-9.95;100.00
58295;BME280;45705;55.592;37.460;2024-02-16T02:21:50;100706.16;;;-10.03;100.00
58295;BME280;45705;55.592;37.460;2024-02-16T02:24:16;100705.59;;;-10.06;100.00
58295;BME280;45705;55.592;37.460;2024-02-16T02:26:42;100704.06;;;-10.09;100.00
58295;BME280;45705;55.592;37.460;2024-02-16T02:29:07;100695.50;;;-9.92;100.00
58295;BME280;45705;55.592;37.460;2024-02-16T02:31:33;100701.03;;;-9.85;100.00
58295;BME280;45705;55.592;37.460;2024-02-16T02:34:00;100700.78;;;-9.92;100.00
58295;BME280;45705;55.592;37.460;2024-02-16T02:36:26;100703.53;;;-10.03;100.00
58295;BME280;45705;55.592;37.460;2024-02-16T02:39:17;100698.53;;;-10.06;100.00
58295;BME280;45705;55.592;37.460;2024-02-16T02:41:44;100704.31;;;-10.12;100.00
58295;BME280;45705;55.592;37.460;2024-02-16T02:44:09;100702.97;;;-9.97;100.00
58295;BME280;45705;55.592;37.460;2024-02-16T02:46:36;100706.56;;;-10.07;100.00
58295;BME280;45705;55.592;37.460;2024-02-16T02:49:02;100701.47;;;-9.90;100.00
58295;BME280;45705;55.592;37.460;2024-02-16T02:51:29;100706.31;;;-9.75;100.00
58295;BME280;45705;55.592;37.460;2024-02-16T02:53:55;100691.19;;;-9.93;100.00
58295;BME280;45705;55.592;37.460;2024-02-16T02:56:21;100696.06;;;-10.07;100.00
58295;BME280;45705;55.592;37.460;2024-02-16T02:58:46;100709.19;;;-10.17;100.00
58295;BME280;45705;55.592;37.460;2024-02-16T03:01:13;100710.72;;;-10.05;100.00
58295;BME280;45705;55.592;37.460;2024-02-16T03:03:39;100710.72;;;-10.05;100.00
58295;BME280;45705;55.592;37.460;2024-02-16T03:06:06;100718.06;;;-9.99;100.00
58295;BME280;45705;55.592;37.460;2024-02-16T03:08:33;100708.22;;;-9.97;100.00
58295;BME280;45705;55.592;37.460;2024-02-16T03:10:58;100716.00;;;-9.85;100.00
58295;BME280;45705;55.592;37.460;2024-02-16T03:13:26;100721.00;;;-9.82;100.00
58295;BME280;45705;55.592;37.460;2024-02-16T03:15:52;100706.03;;;-9.92;100.00
58295;BME280;45705;55.592;37.460;2024-02-16T03:18:19;100719.75;;;-9.88;100.00
58295;BME280;45705;55.592;37.460;2024-02-16T03:20:45;100721.56;;;-9.88;100.00
58295;BME280;45705;55.592;37.460;2024-02-16T03:23:14;100728.19;;;-9.84;100.00
58295;BME280;45705;55.592;37.460;2024-02-16T03:25:40;100718.19;;;-9.91;100.00
58295;BME280;45705;55.592;37.460;2024-02-16T03:28:11;100722.66;;;-9.81;100.00
58295;BME280;45705;55.592;37.460;2024-02-16T03:30:37;100728.19;;;-9.84;100.00
58295;BME280;45705;55.592;37.460;2024-02-16T03:33:04;100731.25;;;-9.79;100.00
58295;BME280;45705;55.592;37.460;2024-02-16T03:35:29;100733.06;;;-9.70;100.00
58295;BME280;45705;55.592;37.460;2024-02-16T03:37:55;100739.00;;;-9.68;100.00
58295;BME280;45705;55.592;37.460;2024-02-16T03:40:25;100736.81;;;-9.73;100.00
58295;BME280;45705;55.592;37.460;2024-02-16T03:42:54;100741.78;;;-9.70;100.00
58295;BME280;45705;55.592;37.460;2024-02-16T03:45:20;100745.41;;;-9.41;100.00
58295;BME280;45705;55.592;37.460;2024-02-16T03:47:46;100738.44;;;-9.81;100.00
58295;BME280;45705;55.592;37.460;2024-02-16T03:50:14;100745.38;;;-9.71;100.00
58295;BME280;45705;55.592;37.460;2024-02-16T03:52:40;100744.28;;;-9.68;100.00
58295;BME280;45705;55.592;37.460;2024-02-16T03:55:07;100743.44;;;-9.78;100.00
58295;BME280;45705;55.592;37.460;2024-02-16T03:57:33;100741.09;;;-9.62;100.00
58295;BME280;45705;55.592;37.460;2024-02-16T03:59:58;100733.19;;;-9.72;100.00
58295;BME280;45705;55.592;37.460;2024-02-16T04:02:25;100733.63;;;-9.66;100.00
58295;BME280;45705;55.592;37.460;2024-02-16T04:04:51;100721.97;;;-9.83;100.00
58295;BME280;45705;55.592;37.460;2024-02-16T04:07:16;100729.28;;;-9.77;100.00
58295;BME280;45705;55.592;37.460;2024-02-16T04:09:42;100710.47;;;-9.82;100.00
58295;BME280;45705;55.592;37.460;2024-02-16T04:12:08;100721.00;;;-9.82;100.00
58295;BME280;45705;55.592;37.460;2024-02-16T04:14:35;100710.19;;;-9.79;100.00
58295;BME280;45705;55.592;37.460;2024-02-16T04:17:01;100715.88;;;-9.74;100.00
58295;BME280;45705;55.592;37.460;2024-02-16T04:19:27;100723.63;;;-9.82;100.00
58295;BME280;45705;55.592;37.460;2024-02-16T04:21:52;100716.56;;;-9.82;100.00
58295;BME280;45705;55.592;37.460;2024-02-16T04:24:18;100721.00;;;-9.82;100.00
58295;BME280;45705;55.592;37.460;2024-02-16T04:26:44;100709.63;;;-9.73;100.00
58295;BME280;45705;55.592;37.460;2024-02-16T04:29:10;100704.66;;;-9.76;100.00
58295;BME280;45705;55.592;37.460;2024-02-16T04:31:40;100692.19;;;-9.84;100.00
58295;BME280;45705;55.592;37.460;2024-02-16T04:34:08;100702.16;;;-9.97;100.00
58295;BME280;45705;55.592;37.460;2024-02-16T04:36:34;100694.41;;;-9.79;100.00
58295;BME280;45705;55.592;37.460;2024-02-16T04:39:00;100710.19;;;-9.79;100.00
58295;BME280;45705;55.592;37.460;2024-02-16T04:41:26;100707.97;;;-9.84;100.00
58295;BME280;45705;55.592;37.460;2024-02-16T04:43:52;100707.16;;;-9.84;100.00
58295;BME280;45705;55.592;37.460;2024-02-16T04:46:19;100703.84;;;-9.86;100.00
58295;BME280;45705;55.592;37.460;2024-02-16T04:48:45;100711.84;;;-9.78;100.00
58295;BME280;45705;55.592;37.460;2024-02-16T04:51:11;100698.69;;;-9.78;100.00
58295;BME280;45705;55.592;37.460;2024-02-16T04:53:38;100695.50;;;-9.72;100.00
58295;BME280;45705;55.592;37.460;2024-02-16T04:56:04;100707.69;;;-9.91;100.00
58295;BME280;45705;55.592;37.460;2024-02-16T04:58:30;100718.50;;;-9.74;100.00
58295;BME280;45705;55.592;37.460;2024-02-16T05:00:56;100696.19;;;-9.90;100.00
58295;BME280;45705;55.592;37.460;2024-02-16T05:03:22;100709.91;;;-9.76;100.00
58295;BME280;45705;55.592;37.460;2024-02-16T05:05:48;100709.22;;;-9.78;100.00
58295;BME280;45705;55.592;37.460;2024-02-16T05:08:14;100705.22;;;-9.82;100.00
58295;BME280;45705;55.592;37.460;2024-02-16T05:10:40;100712.13;;;-9.81;100.00
58295;BME280;45705;55.592;37.460;2024-02-16T05:13:06;100715.19;;;-9.76;100.00
58295;BME280;45705;55.592;37.460;2024-02-16T05:15:32;100705.22;;;-9.63;100.00
58295;BME280;45705;55.592;37.460;2024-02-16T05:17:58;100696.06;;;-9.88;100.00
58295;BME280;45705;55.592;37.460;2024-02-16T05:20:23;100701.31;;;-9.98;100.00
58295;BME280;45705;55.592;37.460;2024-02-16T05:22:49;100696.75;;;-9.96;100.00
58295;BME280;45705;55.592;37.460;2024-02-16T05:25:16;100711.84;;;-9.88;100.00
58295;BME280;45705;55.592;37.460;2024-02-16T05:27:43;100706.84;;;-10.01;100.00
58295;BME280;45705;55.592;37.460;2024-02-16T05:30:10;100710.31;;;-9.81;100.00
58295;BME280;45705;55.592;37.460;2024-02-16T05:32:38;100715.31;;;-9.78;100.00
58295;BME280;45705;55.592;37.460;2024-02-16T05:35:05;100714.38;;;-9.77;100.00
58295;BME280;45705;55.592;37.460;2024-02-16T05:37:42;100713.78;;;-9.90;100.00
58295;BME280;45705;55.592;37.460;2024-02-16T05:40:10;100726.50;;;-9.95;100.00
58295;BME280;45705;55.592;37.460;2024-02-16T05:42:51;100739.53;;;-9.94;100.00
58295;BME280;45705;55.592;37.460;2024-02-16T05:45:17;100730.53;;;-10.01;100.00
58295;BME280;45705;55.592;37.460;2024-02-16T05:47:46;100733.31;;;-9.73;100.00
58295;BME280;45705;55.592;37.460;2024-02-16T05:50:13;100739.00;;;-9.68;100.00
58295;BME280;45705;55.592;37.460;2024-02-16T05:52:39;100714.91;;;-9.63;100.00
58295;BME280;45705;55.592;37.460;2024-02-16T05:55:08;100740.69;;;-9.67;100.00
58295;BME280;45705;55.592;37.460;2024-02-16T05:57:35;100739.16;;;-9.50;100.00
58295;BME280;45705;55.592;37.460;2024-02-16T06:00:02;100744.13;;;-9.37;100.00
58295;BME280;45705;55.592;37.460;2024-02-16T06:02:32;100750.38;;;-9.19;100.00
58295;BME280;45705;55.592;37.460;2024-02-16T06:04:58;100746.78;;;-9.37;100.00
58295;BME280;45705;55.592;37.460;2024-02-16T06:07:24;100748.84;;;-9.31;100.00
58295;BME280;45705;55.592;37.460;2024-02-16T06:09:50;100736.78;;;-9.24;100.00
58295;BME280;45705;55.592;37.460;2024-02-16T06:12:15;100738.72;;;-9.26;100.00
58295;BME280;45705;55.592;37.460;2024-02-16T06:14:42;100732.22;;;-9.41;100.00
58295;BME280;45705;55.592;37.460;2024-02-16T06:17:08;100709.47;;;-9.42;100.00
58295;BME280;45705;55.592;37.460;2024-02-16T06:19:35;100738.44;;;-9.23;100.00
58295;BME280;45705;55.592;37.460;2024-02-16T06:22:00;100741.94;;;-9.32;100.00
58295;BME280;45705;55.592;37.460;2024-02-16T06:24:26;100736.25;;;-9.37;100.00
58295;BME280;45705;55.592;37.460;2024-02-16T06:26:54;100740.09;;;-9.12;100.00
58295;BME280;45705;55.592;37.460;2024-02-16T06:29:20;100731.78;;;-9.27;100.00
58295;BME280;45705;55.592;37.460;2024-02-16T06:31:46;100746.72;;;-8.98;100.00
58295;BME280;45705;55.592;37.460;2024-02-16T06:34:15;100744.25;;;-9.09;100.00
58295;BME280;45705;55.592;37.460;2024-02-16T06:36:42;100755.09;;;-9.13;100.00
58295;BME280;45705;55.592;37.460;2024-02-16T06:39:08;100748.66;;;-9.00;100.00
58295;BME280;45705;55.592;37.460;2024-02-16T06:41:39;100750.31;;;-8.80;100.00
58295;BME280;45705;55.592;37.460;2024-02-16T06:44:05;100750.63;;;-9.02;100.00
58295;BME280;45705;55.592;37.460;2024-02-16T06:46:31;100754.06;;;-9.02;100.00
58295;BME280;45705;55.592;37.460;2024-02-16T06:48:56;100753.78;;;-8.89;99.17
58295;BME280;45705;55.592;37.460;2024-02-16T06:51:23;100757.31;;;-8.71;100.00
58295;BME280;45705;55.592;37.460;2024-02-16T06:53:49;100760.97;;;-8.72;98.23
58295;BME280;45705;55.592;37.460;2024-02-16T06:56:16;100748.91;;;-8.94;98.53
58295;BME280;45705;55.592;37.460;2024-02-16T06:58:44;100745.72;;;-8.78;99.00
58295;BME280;45705;55.592;37.460;2024-02-16T07:01:09;100746.56;;;-8.87;98.15
58295;BME280;45705;55.592;37.460;2024-02-16T07:03:35;100749.41;;;-8.71;98.90
58295;BME280;45705;55.592;37.460;2024-02-16T07:06:03;100748.59;;;-8.71;98.29
58295;BME280;45705;55.592;37.460;2024-02-16T07:08:29;100743.22;;;-8.79;98.96
58295;BME280;45705;55.592;37.460;2024-02-16T07:10:55;100739.47;;;-8.86;99.09
58295;BME280;45705;55.592;37.460;2024-02-16T07:13:22;100735.50;;;-9.00;99.82
58295;BME280;45705;55.592;37.460;2024-02-16T07:15:48;100739.97;;;-9.11;100.00
58295;BME280;45705;55.592;37.460;2024-02-16T07:18:15;100739.81;;;-8.99;100.00
58295;BME280;45705;55.592;37.460;2024-02-16T07:20:41;100750.34;;;-8.99;100.00
58295;BME280;45705;55.592;37.460;2024-02-16T07:23:07;100721.47;;;-8.91;100.00
58295;BME280;45705;55.592;37.460;2024-02-16T07:25:35;100733.81;;;-8.92;100.00
58295;BME280;45705;55.592;37.460;2024-02-16T07:28:00;100724.00;;;-8.99;100.00
58295;BME280;45705;55.592;37.460;2024-02-16T07:30:26;100735.19;;;-8.87;100.00
58295;BME280;45705;55.592;37.460;2024-02-16T07:32:52;100735.03;;;-8.86;100.00
58295;BME280;45705;55.592;37.460;2024-02-16T07:35:18;100730.66;;;-8.95;100.00
58295;BME280;45705;55.592;37.460;2024-02-16T07:37:44;100734.75;;;-8.83;100.00
58295;BME280;45705;55.592;37.460;2024-02-16T07:40:10;100731.72;;;-8.88;100.00
58295;BME280;45705;55.592;37.460;2024-02-16T07:42:39;100726.72;;;-8.81;100.00
58295;BME280;45705;55.592;37.460;2024-02-16T07:45:05;100731.97;;;-8.72;100.00
58295;BME280;45705;55.592;37.460;2024-02-16T07:47:32;100743.31;;;-8.71;100.00
58295;BME280;45705;55.592;37.460;2024-02-16T07:49:57;100736.81;;;-8.77;100.00
58295;BME280;45705;55.592;37.460;2024-02-16T07:52:23;100735.06;;;-8.48;100.00
58295;BME280;45705;55.592;37.460;2024-02-16T07:54:49;100739.75;;;-8.80;100.00
58295;BME280;45705;55.592;37.460;2024-02-16T07:57:17;100729.53;;;-8.55;100.00
58295;BME280;45705;55.592;37.460;2024-02-16T07:59:43;100719.19;;;-8.66;100.00
58295;BME280;45705;55.592;37.460;2024-02-16T08:02:09;100740.75;;;-8.53;99.66
58295;BME280;45705;55.592;37.460;2024-02-16T08:04:50;100735.22;;;-8.50;98.10
58295;BME280;45705;55.592;37.460;2024-02-16T08:07:16;100744.06;;;-8.51;98.47
58295;BME280;45705;55.592;37.460;2024-02-16T08:09:46;100745.22;;;-8.54;99.48
58295;BME280;45705;55.592;37.460;2024-02-16T08:12:12;100760.25;;;-8.64;100.00
58295;BME280;45705;55.592;37.460;2024-02-16T08:14:39;100753.56;;;-8.58;99.37
58295;BME280;45705;55.592;37.460;2024-02-16T08:17:09;100767.53;;;-8.20;98.53
58295;BME280;45705;55.592;37.460;2024-02-16T08:19:36;100769.09;;;-8.27;98.02
58295;BME280;45705;55.592;37.460;2024-02-16T08:22:06;100772.59;;;-8.37;98.32
58295;BME280;45705;55.592;37.460;2024-02-16T08:24:36;100776.44;;;-8.21;97.83
58295;BME280;45705;55.592;37.460;2024-02-16T08:27:02;100778.22;;;-7.94;97.57
58295;BME280;45705;55.592;37.460;2024-02-16T08:29:30;100771.34;;;-8.05;97.30
58295;BME280;45705;55.592;37.460;2024-02-16T08:31:56;100775.25;;;-8.09;97.80
58295;BME280;45705;55.592;37.460;2024-02-16T08:34:22;100766.66;;;-8.11;97.27
58295;BME280;45705;55.592;37.460;2024-02-16T08:36:49;100769.16;;;-8.09;97.17
58295;BME280;45705;55.592;37.460;2024-02-16T08:39:16;100776.25;;;-8.10;98.04
58295;BME280;45705;55.592;37.460;2024-02-16T08:41:41;100781.59;;;-8.02;97.62
58295;BME280;45705;55.592;37.460;2024-02-16T08:44:09;100770.84;;;-8.18;98.37
58295;BME280;45705;55.592;37.460;2024-02-16T08:46:39;100768.69;;;-8.05;97.62
58295;BME280;45705;55.592;37.460;2024-02-16T08:49:07;100762.72;;;-8.07;97.33
58295;BME280;45705;55.592;37.460;2024-02-16T08:51:35;100764.09;;;-8.31;96.97
58295;BME280;45705;55.592;37.460;2024-02-16T08:54:01;100765.38;;;-8.35;97.98
58295;BME280;45705;55.592;37.460;2024-02-16T08:56:27;100758.31;;;-8.16;97.62
58295;BME280;45705;55.592;37.460;2024-02-16T08:58:53;100764.59;;;-7.89;97.77
58295;BME280;45705;55.592;37.460;2024-02-16T09:01:33;100761.78;;;-8.06;96.71
58295;BME280;45705;55.592;37.460;2024-02-16T09:03:59;100764.09;;;-8.03;96.73
58295;BME280;45705;55.592;37.460;2024-02-16T09:06:26;100754.53;;;-8.32;96.72
58295;BME280;45705;55.592;37.460;2024-02-16T09:08:52;100753.75;;;-8.14;97.20
58295;BME280;45705;55.592;37.460;2024-02-16T09:11:18;100748.69;;;-8.25;96.95
58295;BME280;45705;55.592;37.460;2024-02-16T09:13:43;100755.50;;;-8.05;97.35
58295;BME280;45705;55.592;37.460;2024-02-16T09:16:09;100761.97;;;-8.17;96.92
58295;BME280;45705;55.592;37.460;2024-02-16T09:18:35;100758.47;;;-7.90;97.17
58295;BME280;45705;55.592;37.460;2024-02-16T09:21:03;100759.66;;;-8.02;96.38
58295;BME280;45705;55.592;37.460;2024-02-16T09:23:29;100753.53;;;-8.03;96.33
58295;BME280;45705;55.592;37.460;2024-02-16T09:25:55;100763.53;;;-7.97;96.59
58295;BME280;45705;55.592;37.460;2024-02-16T09:28:21;100756.75;;;-7.81;95.53
58295;BME280;45705;55.592;37.460;2024-02-16T09:30:47;100761.38;;;-8.11;95.95
58295;BME280;45705;55.592;37.460;2024-02-16T09:33:13;100761.38;;;-8.11;97.20
58295;BME280;45705;55.592;37.460;2024-02-16T09:35:40;100760.81;;;-8.15;96.96
58295;BME280;45705;55.592;37.460;2024-02-16T09:38:06;100742.34;;;-7.87;97.58
58295;BME280;45705;55.592;37.460;2024-02-16T09:40:33;100741.16;;;-7.75;97.09
58295;BME280;45705;55.592;37.460;2024-02-16T09:42:58;100736.81;;;-7.94;97.45
58295;BME280;45705;55.592;37.460;2024-02-16T09:45:25;100734.25;;;-7.85;97.32
58295;BME280;45705;55.592;37.460;2024-02-16T09:47:54;100730.72;;;-7.76;96.59
58295;BME280;45705;55.592;37.460;2024-02-16T09:50:20;100733.16;;;-7.65;95.91
58295;BME280;45705;55.592;37.460;2024-02-16T09:52:48;100734.97;;;-7.47;95.82
58295;BME280;45705;55.592;37.460;2024-02-16T09:55:15;100722.81;;;-7.40;94.08
58295;BME280;45705;55.592;37.460;2024-02-16T09:57:41;100712.38;;;-7.24;93.33
58295;BME280;45705;55.592;37.460;2024-02-16T10:00:09;100708.44;;;-7.20;93.28
58295;BME280;45705;55.592;37.460;2024-02-16T10:02:47;100696.94;;;-7.10;93.09
58295;BME280;45705;55.592;37.460;2024-02-16T10:05:15;100698.38;;;-7.16;92.78
58295;BME280;45705;55.592;37.460;2024-02-16T10:07:42;100695.22;;;-7.20;93.24
58295;BME280;45705;55.592;37.460;2024-02-16T10:10:24;100696.56;;;-7.16;92.65
58295;BME280;45705;55.592;37.460;2024-02-16T10:12:50;100700.88;;;-7.15;92.24
58295;BME280;45705;55.592;37.460;2024-02-16T10:15:20;100696.75;;;-7.17;92.11
58295;BME280;45705;55.592;37.460;2024-02-16T10:20:25;100701.59;;;-7.04;93.14
58295;BME280;45705;55.592;37.460;2024-02-16T10:25:36;100694.09;;;-6.91;90.67
58295;BME280;45705;55.592;37.460;2024-02-16T10:28:09;100703.38;;;-7.13;90.44
58295;BME280;45705;55.592;37.460;2024-02-16T10:30:40;100708.44;;;-7.20;90.18
58295;BME280;45705;55.592;37.460;2024-02-16T10:33:08;100713.84;;;-7.03;90.63
58295;BME280;45705;55.592;37.460;2024-02-16T10:35:36;100705.56;;;-6.40;90.68
58295;BME280;45705;55.592;37.460;2024-02-16T10:38:06;100706.38;;;-6.82;89.02
58295;BME280;45705;55.592;37.460;2024-02-16T10:40:41;100700.28;;;-7.00;88.96
58295;BME280;45705;55.592;37.460;2024-02-16T10:43:08;100694.03;;;-6.99;88.33
58295;BME280;45705;55.592;37.460;2024-02-16T10:45:36;100691.75;;;-6.94;88.79
58295;BME280;45705;55.592;37.460;2024-02-16T10:48:03;100693.28;;;-7.09;87.57
58295;BME280;45705;55.592;37.460;2024-02-16T10:50:32;100691.59;;;-7.37;88.34
58295;BME280;45705;55.592;37.460;2024-02-16T10:53:02;100697.97;;;-7.03;89.41
58295;BME280;45705;55.592;37.460;2024-02-16T10:55:30;100692.41;;;-6.92;89.48
58295;BME280;45705;55.592;37.460;2024-02-16T10:57:56;100708.13;;;-6.90;88.96
58295;BME280;45705;55.592;37.460;2024-02-16T11:00:23;100705.34;;;-7.15;90.41
58295;BME280;45705;55.592;37.460;2024-02-16T11:02:55;100708.56;;;-7.03;88.74
58295;BME280;45705;55.592;37.460;2024-02-16T11:05:41;100701.97;;;-6.99;88.78
58295;BME280;45705;55.592;37.460;2024-02-16T11:08:20;100700.16;;;-6.72;88.29
58295;BME280;45705;55.592;37.460;2024-02-16T11:11:02;100709.69;;;-6.80;86.12
58295;BME280;45705;55.592;37.460;2024-02-16T11:13:35;100704.69;;;-6.83;86.78
58295;BME280;45705;55.592;37.460;2024-02-16T11:16:09;100699.66;;;-6.94;88.99
58295;BME280;45705;55.592;37.460;2024-02-16T11:18:42;100703.47;;;-6.70;87.79
58295;BME280;45705;55.592;37.460;2024-02-16T11:21:16;100700.34;;;-6.92;88.23
58295;BME280;45705;55.592;37.460;2024-02-16T11:23:42;100703.69;;;-6.90;88.05
58295;BME280;45705;55.592;37.460;2024-02-16T11:26:11;100709.56;;;-6.96;87.85
58295;BME280;45705;55.592;37.460;2024-02-16T11:28:38;100704.13;;;-6.68;87.55
58295;BME280;45705;55.592;37.460;2024-02-16T11:31:05;100704.06;;;-6.77;87.10
58295;BME280;45705;55.592;37.460;2024-02-16T11:33:33;100700.00;;;-6.97;88.05
58295;BME280;45705;55.592;37.460;2024-02-16T11:36:01;100703.56;;;-7.06;88.48
58295;BME280;45705;55.592;37.460;2024-02-16T11:38:27;100704.06;;;-6.77;89.16
58295;BME280;45705;55.592;37.460;2024-02-16T11:40:57;100705.78;;;-6.67;88.03
58295;BME280;45705;55.592;37.460;2024-02-16T11:43:24;100697.34;;;-6.97;88.63
58295;BME280;45705;55.592;37.460;2024-02-16T11:45:51;100690.19;;;-6.79;88.03
58295;BME280;45705;55.592;37.460;2024-02-16T11:48:25;100687.94;;;-7.00;87.39
58295;BME280;45705;55.592;37.460;2024-02-16T11:50:59;100688.13;;;-6.93;87.99
58295;BME280;45705;55.592;37.460;2024-02-16T11:53:26;100691.22;;;-6.71;88.08
58295;BME280;45705;55.592;37.460;2024-02-16T11:55:51;100686.44;;;-6.94;87.96
58295;BME280;45705;55.592;37.460;2024-02-16T11:58:18;100687.75;;;-6.98;88.61
58295;BME280;45705;55.592;37.460;2024-02-16T12:00:48;100676.94;;;-7.13;89.33
58295;BME280;45705;55.592;37.460;2024-02-16T12:03:21;100677.34;;;-7.00;90.29
58295;BME280;45705;55.592;37.460;2024-02-16T12:05:55;100690.59;;;-7.18;90.33
58295;BME280;45705;55.592;37.460;2024-02-16T12:08:21;100682.69;;;-6.91;90.03
58295;BME280;45705;55.592;37.460;2024-02-16T12:10:51;100681.34;;;-6.61;89.40
58295;BME280;45705;55.592;37.460;2024-02-16T12:13:18;100687.97;;;-6.57;88.35
58295;BME280;45705;55.592;37.460;2024-02-16T12:15:48;100697.13;;;-6.78;87.50
58295;BME280;45705;55.592;37.460;2024-02-16T12:18:24;100699.81;;;-6.69;88.53
58295;BME280;45705;55.592;37.460;2024-02-16T12:21:06;100700.53;;;-6.17;86.51
58295;BME280;45705;55.592;37.460;2024-02-16T12:23:32;100697.59;;;-6.48;86.58
58295;BME280;45705;55.592;37.460;2024-02-16T12:25:59;100698.50;;;-6.31;85.49
58295;BME280;45705;55.592;37.460;2024-02-16T12:28:27;100701.16;;;-6.23;86.16
58295;BME280;45705;55.592;37.460;2024-02-16T12:30:56;100700.25;;;-6.48;86.05
58295;BME280;45705;55.592;37.460;2024-02-16T12:33:22;100703.56;;;-6.46;86.72
58295;BME280;45705;55.592;37.460;2024-02-16T12:35:48;100698.53;;;-6.57;86.58
58295;BME280;45705;55.592;37.460;2024-02-16T12:38:14;100706.53;;;-6.49;87.65
58295;BME280;45705;55.592;37.460;2024-02-16T12:40:43;100707.84;;;-6.53;88.16
58295;BME280;45705;55.592;37.460;2024-02-16T12:43:08;100708.16;;;-6.56;87.83